Time;durP1;ratioP1;P1;durP2;ratioP2;P2;SDS_P1;SDS_P2;PMS_P1;PMS_P2;Temp;Humidity;BMP_temperature;BMP_pressure;BME280_temperature;BME280_humidity;BME280_pressure;Samples;Min_cycle;Max_cycle;Signal;HPM_P1;HPM_P2
2022/01/26 00:06:43;;;;;;;86.07;36.70;;;-6.40;99.90;;;;;;5078685;28;20476;-72
2022/01/26 00:09:11;;;;;;;77.63;35.97;;;-6.50;99.90;;;;;;5078831;28;20397;-73
2022/01/26 00:11:37;;;;;;;93.93;37.90;;;-6.40;99.90;;;;;;5077591;28;20400;-77
2022/01/26 00:14:09;;;;;;;89.10;40.43;;;-6.50;99.90;;;;;;5078441;28;20448;-77
2022/01/26 00:19:03;;;;;;;95.13;41.07;;;-6.10;99.90;;;;;;5078542;28;20449;-72
2022/01/26 00:21:33;;;;;;;87.33;40.10;;;-6.30;99.90;;;;;;5078580;28;20208;-76
2022/01/26 00:29:14;;;;;;;95.57;39.97;;;-6.20;99.90;;;;;;5078063;28;20405;-75
2022/01/26 00:34:17;;;;;;;99.03;39.43;;;-6.30;99.90;;;;;;5076481;28;20435;-73
2022/01/26 00:40:39;;;;;;;102.40;44.17;;;-6.50;99.90;;;;;;5078250;28;20399;-76
2022/01/26 00:43:15;;;;;;;90.33;39.50;;;-6.40;99.90;;;;;;5077729;28;20757;-77
2022/01/26 00:45:42;;;;;;;98.23;44.33;;;-6.20;99.90;;;;;;5078142;28;20866;-73
2022/01/26 00:48:09;;;;;;;96.13;43.27;;;-6.10;99.90;;;;;;5077900;28;20411;-71
2022/01/26 00:50:37;;;;;;;94.90;42.70;;;-6.40;99.90;;;;;;5078161;28;20408;-75
2022/01/26 00:53:05;;;;;;;85.43;40.93;;;-6.20;99.90;;;;;;5077914;28;20907;-76
2022/01/26 00:55:31;;;;;;;83.13;38.00;;;-6.00;99.90;;;;;;5077934;28;20408;-76
2022/01/26 00:57:57;;;;;;;96.40;46.70;;;-6.70;99.90;;;;;;5077497;28;20411;-75
2022/01/26 01:00:26;;;;;;;98.13;43.30;;;-6.30;99.90;;;;;;5077881;28;20408;-75
2022/01/26 01:02:53;;;;;;;96.07;41.57;;;-6.40;99.90;;;;;;5077315;28;20202;-75
2022/01/26 01:05:24;;;;;;;90.10;40.07;;;-6.60;99.90;;;;;;5077813;28;20426;-76
2022/01/26 01:07:55;;;;;;;88.80;39.17;;;-6.50;99.90;;;;;;5077686;28;20407;-75
2022/01/26 01:10:23;;;;;;;91.30;42.27;;;-6.50;99.90;;;;;;5077673;28;20491;-74
2022/01/26 01:12:54;;;;;;;82.13;39.30;;;-6.20;99.90;;;;;;5077372;28;20404;-76
2022/01/26 01:15:21;;;;;;;98.97;44.87;;;-6.40;99.90;;;;;;5077653;28;20400;-77
2022/01/26 01:17:52;;;;;;;89.03;40.73;;;-6.40;99.90;;;;;;5077497;28;20897;-76
2022/01/26 01:28:32;;;;;;;89.90;41.40;;;-6.20;99.90;;;;;;5075940;28;20530;-76
2022/01/26 01:31:08;;;;;;;98.07;41.73;;;-6.20;99.90;;;;;;5077034;28;20718;-72
2022/01/26 01:33:38;;;;;;;99.13;43.13;;;-6.40;99.90;;;;;;5077008;28;20400;-75
2022/01/26 01:36:06;;;;;;;95.47;41.27;;;-6.10;99.90;;;;;;5077063;28;20411;-75
2022/01/26 01:38:34;;;;;;;99.57;45.87;;;-6.20;99.90;;;;;;5077279;28;20423;-75
2022/01/26 01:41:00;;;;;;;92.90;43.80;;;-5.90;99.90;;;;;;5076426;28;20404;-76
2022/01/26 01:43:26;;;;;;;85.53;39.63;;;-6.00;99.90;;;;;;5076097;28;20453;-71
2022/01/26 01:45:53;;;;;;;96.30;42.57;;;-6.00;99.90;;;;;;5077078;28;20250;-70
2022/01/26 01:48:23;;;;;;;84.93;43.00;;;-6.00;99.90;;;;;;5076804;28;20163;-71
2022/01/26 01:50:51;;;;;;;85.40;38.53;;;-6.20;99.90;;;;;;5076787;28;20404;-74
2022/01/26 01:53:18;;;;;;;89.13;40.47;;;-6.00;99.90;;;;;;5076670;28;20421;-75
2022/01/26 01:55:49;;;;;;;81.50;37.17;;;-5.70;99.90;;;;;;5076580;28;20408;-73
2022/01/26 01:58:17;;;;;;;88.63;39.50;;;-6.10;99.90;;;;;;5076668;28;20747;-76
2022/01/26 02:00:43;;;;;;;87.33;42.17;;;-6.40;99.90;;;;;;5076469;28;20392;-73
2022/01/26 02:03:09;;;;;;;84.00;38.10;;;-6.60;99.90;;;;;;5076498;28;20452;-76
2022/01/26 02:05:35;;;;;;;85.63;42.23;;;-6.50;99.90;;;;;;5076638;28;20449;-77
2022/01/26 02:08:01;;;;;;;87.00;39.93;;;-6.50;99.90;;;;;;5076692;28;20209;-77
2022/01/26 02:10:29;;;;;;;83.90;37.13;;;-6.40;99.90;;;;;;5076198;28;20163;-73
2022/01/26 02:12:57;;;;;;;86.70;41.80;;;-6.00;99.90;;;;;;5076487;28;20403;-74
2022/01/26 02:15:30;;;;;;;88.57;37.10;;;-6.00;99.90;;;;;;5076394;28;20401;-72
2022/01/26 02:18:14;;;;;;;83.33;37.83;;;-6.10;99.90;;;;;;5076492;28;20430;-70
2022/01/26 02:21:00;;;;;;;82.10;38.93;;;-6.20;99.90;;;;;;5076299;28;20400;-77
2022/01/26 02:55:56;;;;;;;81.00;37.30;;;-5.60;99.90;;;;;;5075964;28;20168;-71
2022/01/26 03:06:45;;;;;;;88.10;38.63;;;-5.50;99.90;;;;;;5075537;28;20411;-71
2022/01/26 03:09:15;;;;;;;84.43;37.20;;;-5.70;99.90;;;;;;5075455;28;20499;-74
2022/01/26 03:11:44;;;;;;;83.60;37.97;;;-5.70;99.90;;;;;;5075569;28;20396;-71
2022/01/26 03:14:28;;;;;;;87.43;39.30;;;-5.50;99.90;;;;;;5075544;28;20407;-72
2022/01/26 03:17:00;;;;;;;81.13;34.17;;;-5.70;99.90;;;;;;5075524;28;20462;-72
2022/01/26 03:19:35;;;;;;;86.23;40.03;;;-6.10;99.90;;;;;;5075649;28;20396;-71
2022/01/26 03:30:01;;;;;;;78.60;35.77;;;-6.10;99.90;;;;;;5075614;28;20846;-70
2022/01/26 03:32:54;;;;;;;87.83;37.63;;;-6.50;99.90;;;;;;5075236;28;20427;-70
2022/01/26 03:35:31;;;;;;;84.83;35.80;;;-6.30;99.90;;;;;;5075243;28;20423;-76
2022/01/26 03:37:58;;;;;;;76.97;35.50;;;-6.30;99.90;;;;;;5075183;28;20507;-72
2022/01/26 03:40:33;;;;;;;87.13;36.67;;;-6.40;99.90;;;;;;5074278;28;20462;-76
2022/01/26 03:43:00;;;;;;;97.37;36.13;;;-6.30;99.90;;;;;;5075213;28;20450;-73
2022/01/26 03:45:26;;;;;;;83.50;36.57;;;-6.30;99.90;;;;;;5075258;28;20823;-74
2022/01/26 03:47:54;;;;;;;86.80;37.40;;;-6.20;99.90;;;;;;5075250;28;20408;-74
2022/01/26 03:50:21;;;;;;;78.63;34.40;;;-6.40;99.90;;;;;;5075372;28;20399;-75
2022/01/26 03:52:47;;;;;;;82.77;35.23;;;-6.70;99.90;;;;;;5074977;28;20400;-72
2022/01/26 03:55:13;;;;;;;80.67;34.63;;;-6.20;99.90;;;;;;5075311;28;20784;-74
2022/01/26 03:57:38;;;;;;;91.23;36.10;;;-6.50;99.90;;;;;;5075082;28;20207;-76
2022/01/26 04:00:07;;;;;;;96.97;35.93;;;-6.70;99.90;;;;;;5075371;28;20168;-74
2022/01/26 04:02:34;;;;;;;85.03;37.87;;;-6.90;99.90;;;;;;5074857;28;20294;-71
2022/01/26 04:05:03;;;;;;;98.60;35.87;;;-7.00;99.90;;;;;;5075770;28;20404;-70
2022/01/26 04:07:29;;;;;;;85.17;36.17;;;-7.00;99.90;;;;;;5078404;28;20400;-72
2022/01/26 04:10:03;;;;;;;81.97;33.87;;;-7.10;99.90;;;;;;5078917;28;20471;-74
2022/01/26 04:12:30;;;;;;;80.40;33.83;;;-6.90;99.90;;;;;;5078579;28;20167;-72
2022/01/26 04:15:02;;;;;;;90.83;34.37;;;-7.30;99.90;;;;;;5078858;28;20411;-76
2022/01/26 04:17:28;;;;;;;89.47;33.30;;;-7.70;99.90;;;;;;5078648;28;20400;-73
2022/01/26 04:19:57;;;;;;;84.20;33.00;;;-7.20;99.90;;;;;;5078687;28;20407;-73
2022/01/26 04:22:31;;;;;;;78.40;31.03;;;-7.20;99.90;;;;;;5077073;28;20199;-70
2022/01/26 04:24:57;;;;;;;85.27;35.00;;;-7.10;99.90;;;;;;5077507;28;20412;-73
2022/01/26 04:27:33;;;;;;;81.60;32.63;;;-7.70;99.90;;;;;;5078575;28;20407;-75
2022/01/26 04:29:59;;;;;;;81.17;33.97;;;-7.70;99.90;;;;;;5078519;28;20408;-76
2022/01/26 04:32:25;;;;;;;85.43;33.70;;;-7.20;99.90;;;;;;5078152;28;20921;-76
2022/01/26 04:34:51;;;;;;;71.40;30.47;;;-6.90;99.90;;;;;;5078072;28;20240;-76
2022/01/26 04:40:10;;;;;;;80.20;29.47;;;-7.50;99.90;;;;;;5078387;28;20174;-72
2022/01/26 04:42:58;;;;;;;71.87;30.03;;;-7.90;99.90;;;;;;5077819;28;20559;-74
2022/01/26 04:45:21;;;;;;;76.10;33.20;;;-7.80;99.90;;;;;;5077851;28;20764;-74
2022/01/26 04:47:47;;;;;;;85.43;35.67;;;-7.50;99.90;;;;;;5078067;28;20400;-76
2022/01/26 04:50:13;;;;;;;90.00;34.93;;;-7.80;99.90;;;;;;5077885;28;20559;-70
2022/01/26 04:52:40;;;;;;;92.87;37.47;;;-7.60;99.90;;;;;;5076704;28;20511;-75
2022/01/26 04:55:07;;;;;;;91.50;34.90;;;-7.10;99.90;;;;;;5078145;28;20254;-77
2022/01/26 04:57:32;;;;;;;79.83;32.50;;;-7.40;99.90;;;;;;5076719;28;20791;-73
2022/01/26 04:59:58;;;;;;;81.50;33.27;;;-7.20;99.90;;;;;;5078019;28;20496;-74
2022/01/26 05:02:24;;;;;;;82.53;32.97;;;-7.60;99.90;;;;;;5077279;28;20211;-76
2022/01/26 05:04:50;;;;;;;73.97;33.73;;;-7.70;99.90;;;;;;5077548;28;20171;-73
2022/01/26 05:07:16;;;;;;;86.50;37.10;;;-7.40;99.90;;;;;;5077800;28;20925;-74
2022/01/26 05:09:41;;;;;;;91.27;35.53;;;-7.40;99.90;;;;;;5077725;28;20164;-76
2022/01/26 05:12:08;;;;;;;82.13;33.13;;;-7.40;99.90;;;;;;5077765;28;20571;-73
2022/01/26 05:14:34;;;;;;;83.60;35.00;;;-7.20;99.90;;;;;;5077371;28;20217;-77
2022/01/26 05:17:00;;;;;;;74.43;35.47;;;-7.40;99.90;;;;;;5077341;28;20405;-72
2022/01/26 05:19:26;;;;;;;86.43;34.47;;;-7.40;99.90;;;;;;5077214;28;20175;-74
2022/01/26 05:21:52;;;;;;;81.27;34.90;;;-7.20;99.90;;;;;;5077219;28;20207;-74
2022/01/26 05:24:18;;;;;;;74.80;32.40;;;-6.80;99.90;;;;;;5077518;28;20392;-77
2022/01/26 05:26:44;;;;;;;91.80;37.00;;;-6.70;99.90;;;;;;5077408;28;20167;-71
2022/01/26 05:29:09;;;;;;;93.77;37.00;;;-6.50;99.90;;;;;;5076135;28;20521;-70
2022/01/26 05:31:35;;;;;;;77.63;34.70;;;-6.70;99.90;;;;;;5077099;28;20179;-71
2022/01/26 05:34:01;;;;;;;77.53;35.03;;;-6.90;99.90;;;;;;5076967;28;20179;-76
2022/01/26 05:36:26;;;;;;;76.30;32.63;;;-6.80;99.90;;;;;;5077176;28;20617;-76
2022/01/26 05:38:52;;;;;;;76.10;31.63;;;-6.80;99.90;;;;;;5077331;28;20251;-77
2022/01/26 05:41:18;;;;;;;88.13;36.60;;;-6.90;99.90;;;;;;5077154;28;20228;-78
2022/01/26 05:43:44;;;;;;;73.63;32.93;;;-7.00;99.90;;;;;;5076854;28;20203;-73
2022/01/26 05:46:25;;;;;;;78.00;34.53;;;-7.00;99.90;;;;;;5077035;28;20163;-76
2022/01/26 05:48:52;;;;;;;76.77;33.73;;;-7.20;99.90;;;;;;5076526;28;20166;-77
2022/01/26 05:51:18;;;;;;;80.70;36.00;;;-7.20;99.90;;;;;;5076856;28;20409;-70
2022/01/26 05:53:44;;;;;;;82.43;36.53;;;-8.00;99.90;;;;;;5076597;28;20408;-77
2022/01/26 05:56:09;;;;;;;81.93;37.70;;;-8.20;99.90;;;;;;5076842;28;20163;-74
2022/01/26 05:58:35;;;;;;;80.30;36.63;;;-7.40;99.90;;;;;;5076506;28;20172;-77
2022/01/26 06:01:02;;;;;;;76.20;34.10;;;-7.50;99.90;;;;;;5075410;28;20582;-77
2022/01/26 06:03:28;;;;;;;91.10;40.60;;;-7.10;99.90;;;;;;5076172;28;20329;-76
2022/01/26 06:05:55;;;;;;;87.00;36.13;;;-7.10;99.90;;;;;;5075542;28;20926;-76
2022/01/26 06:08:22;;;;;;;83.97;35.37;;;-7.00;99.90;;;;;;5075507;28;20408;-75
2022/01/26 06:10:48;;;;;;;87.87;35.23;;;-7.10;99.90;;;;;;5075571;28;20741;-77
2022/01/26 06:13:14;;;;;;;91.90;34.70;;;-7.10;99.90;;;;;;5076307;28;20491;-77
2022/01/26 06:15:40;;;;;;;89.57;36.20;;;-7.20;99.90;;;;;;5076270;28;20537;-70
2022/01/26 06:18:06;;;;;;;88.37;36.47;;;-7.50;99.90;;;;;;5076264;28;20175;-74
2022/01/26 06:20:32;;;;;;;84.80;40.47;;;-7.60;99.90;;;;;;5076234;28;20182;-76
2022/01/26 06:22:58;;;;;;;78.73;35.93;;;-7.70;99.90;;;;;;5076007;28;20595;-77
2022/01/26 06:25:24;;;;;;;82.60;35.77;;;-7.20;99.90;;;;;;5075231;28;20586;-76
2022/01/26 06:27:52;;;;;;;85.37;36.80;;;-7.20;99.90;;;;;;5075573;28;20401;-76
2022/01/26 06:30:18;;;;;;;78.23;36.83;;;-7.40;99.90;;;;;;5076230;28;20217;-75
2022/01/26 06:32:44;;;;;;;83.73;36.13;;;-7.60;99.90;;;;;;5075724;28;20420;-75
2022/01/26 06:35:11;;;;;;;81.73;39.00;;;-7.50;99.90;;;;;;5075001;28;20591;-71
2022/01/26 06:37:37;;;;;;;95.03;37.43;;;-7.30;99.90;;;;;;5075804;28;20220;-72
2022/01/26 06:40:04;;;;;;;86.00;38.93;;;-7.70;99.90;;;;;;5076026;28;20412;-76
2022/01/26 06:42:36;;;;;;;88.13;38.57;;;-7.70;99.90;;;;;;5075789;28;20501;-75
2022/01/26 06:45:14;;;;;;;87.63;34.90;;;-7.70;99.90;;;;;;5076065;28;20438;-71
2022/01/26 06:50:14;;;;;;;98.30;37.63;;;-7.50;99.90;;;;;;5075730;28;20738;-71
2022/01/26 06:52:43;;;;;;;88.57;38.97;;;-7.50;99.90;;;;;;5075631;28;20404;-70
2022/01/26 06:55:10;;;;;;;101.30;40.13;;;-7.70;99.90;;;;;;5064214;28;20831;-82
2022/01/26 06:57:36;;;;;;;93.40;40.60;;;-7.90;99.90;;;;;;5069279;28;20855;-69
2022/01/26 07:00:03;;;;;;;94.37;38.27;;;-7.60;99.90;;;;;;5066724;28;20426;-72
2022/01/26 07:02:29;;;;;;;83.10;34.87;;;-7.50;99.90;;;;;;5074400;28;20280;-71
2022/01/26 07:04:54;;;;;;;88.97;38.63;;;-7.30;99.90;;;;;;5074398;28;20848;-70
2022/01/26 07:07:20;;;;;;;90.63;39.47;;;-7.00;99.90;;;;;;5075359;28;20211;-72
2022/01/26 07:09:46;;;;;;;95.40;35.83;;;-6.80;99.90;;;;;;5073990;28;20233;-71
2022/01/26 07:12:12;;;;;;;86.03;38.77;;;-7.20;99.90;;;;;;5075392;28;20202;-74
2022/01/26 07:22:34;;;;;;;88.83;37.20;;;-7.30;99.90;;;;;;5073857;28;20487;-79
2022/01/26 07:25:00;;;;;;;88.20;37.20;;;-7.10;99.90;;;;;;5067936;28;20839;-77
2022/01/26 07:27:26;;;;;;;96.17;42.70;;;-6.70;99.90;;;;;;5074217;28;20415;-72
2022/01/26 07:29:52;;;;;;;94.93;39.77;;;-6.60;99.90;;;;;;5067023;28;20202;-71
2022/01/26 07:32:18;;;;;;;92.70;40.93;;;-7.00;99.90;;;;;;5074169;28;20179;-72
2022/01/26 07:34:45;;;;;;;94.57;41.67;;;-7.20;99.90;;;;;;5074870;28;20473;-71
2022/01/26 07:37:13;;;;;;;89.30;36.93;;;-6.80;99.90;;;;;;5074764;28;20171;-71
2022/01/26 07:39:45;;;;;;;102.10;38.67;;;-6.80;99.90;;;;;;5075350;28;20808;-71
2022/01/26 07:42:11;;;;;;;97.63;37.57;;;-6.80;99.90;;;;;;5077078;28;20438;-71
2022/01/26 07:44:37;;;;;;;96.13;40.87;;;-7.10;99.90;;;;;;5078447;28;20473;-72
2022/01/26 07:47:04;;;;;;;104.03;39.30;;;-7.20;99.90;;;;;;5078950;28;20753;-70
2022/01/26 07:49:30;;;;;;;93.23;38.53;;;-7.30;99.90;;;;;;5078863;28;20171;-70
2022/01/26 07:51:55;;;;;;;86.37;39.70;;;-7.20;99.90;;;;;;5078249;28;20400;-70
2022/01/26 07:54:22;;;;;;;92.67;38.03;;;-6.90;99.90;;;;;;5077343;28;20705;-71
2022/01/26 07:56:48;;;;;;;90.70;37.87;;;-7.00;99.90;;;;;;5076927;28;20191;-71
2022/01/26 07:59:14;;;;;;;86.87;37.73;;;-7.20;99.90;;;;;;5077995;28;20760;-74
2022/01/26 08:01:40;;;;;;;103.47;42.87;;;-6.70;99.90;;;;;;5070232;28;20258;-70
2022/01/26 08:04:06;;;;;;;88.10;38.60;;;-6.10;99.90;;;;;;5074155;28;20521;-73
2022/01/26 08:06:31;;;;;;;93.47;40.17;;;-6.80;99.90;;;;;;5073863;28;20633;-70
2022/01/26 08:09:00;;;;;;;88.83;39.93;;;-7.00;99.90;;;;;;5075773;28;20194;-69
2022/01/26 08:11:26;;;;;;;88.83;36.47;;;-6.70;99.90;;;;;;5076873;28;20170;-69
2022/01/26 08:13:52;;;;;;;89.80;40.97;;;-6.90;99.90;;;;;;5077281;28;20438;-69
2022/01/26 08:16:18;;;;;;;83.93;37.93;;;-6.60;99.90;;;;;;5077422;28;20499;-69
2022/01/26 08:18:44;;;;;;;79.63;34.20;;;-6.80;99.90;;;;;;5075705;28;20514;-71
2022/01/26 08:21:10;;;;;;;75.13;35.63;;;-6.90;99.90;;;;;;5077762;28;20171;-73
2022/01/26 08:23:37;;;;;;;76.47;36.63;;;-6.80;99.90;;;;;;5076822;28;20213;-69
2022/01/26 08:26:03;;;;;;;84.47;39.10;;;-6.50;99.90;;;;;;5076891;28;20408;-69
2022/01/26 08:28:36;;;;;;;74.87;33.70;;;-6.40;99.90;;;;;;5076865;28;20847;-69
2022/01/26 08:31:02;;;;;;;90.83;40.10;;;-6.10;99.90;;;;;;5076640;28;20404;-68
2022/01/26 08:33:28;;;;;;;84.57;36.87;;;-6.60;99.90;;;;;;5075946;28;20935;-68
2022/01/26 08:35:54;;;;;;;74.73;37.53;;;-6.40;99.90;;;;;;5077398;28;20450;-68
2022/01/26 08:38:20;;;;;;;80.63;38.30;;;-6.60;99.90;;;;;;5076584;28;20313;-68
2022/01/26 08:40:46;;;;;;;86.47;40.10;;;-6.80;99.90;;;;;;5077335;28;20194;-68
2022/01/26 08:43:13;;;;;;;73.20;33.37;;;-6.60;99.90;;;;;;5076237;28;20552;-69
2022/01/26 08:45:39;;;;;;;85.70;39.43;;;-6.40;99.90;;;;;;5076274;28;20408;-69
2022/01/26 08:48:06;;;;;;;81.03;37.30;;;-7.20;99.90;;;;;;5062817;28;20423;-69
2022/01/26 08:50:33;;;;;;;75.10;38.03;;;-7.30;99.90;;;;;;5073364;28;20416;-69
2022/01/26 08:52:58;;;;;;;80.43;39.20;;;-7.30;99.90;;;;;;5075030;28;20449;-72
2022/01/26 08:55:24;;;;;;;79.30;37.20;;;-7.10;99.90;;;;;;5075656;28;20412;-72
2022/01/26 08:57:50;;;;;;;77.33;34.97;;;-7.30;99.90;;;;;;5076418;28;20554;-70
2022/01/26 09:00:17;;;;;;;79.17;36.10;;;-7.10;99.90;;;;;;5076999;28;20179;-68
2022/01/26 09:02:43;;;;;;;80.33;39.17;;;-6.90;99.90;;;;;;5076075;28;20254;-71
2022/01/26 09:05:10;;;;;;;76.33;35.77;;;-7.00;99.90;;;;;;5076565;28;20396;-69
2022/01/26 09:07:37;;;;;;;69.80;36.53;;;-7.00;99.90;;;;;;5076847;28;20499;-70
2022/01/26 09:10:04;;;;;;;67.83;33.07;;;-7.30;99.90;;;;;;5076429;28;20400;-69
2022/01/26 09:12:33;;;;;;;70.77;35.73;;;-7.10;99.90;;;;;;5075406;28;20407;-69
2022/01/26 09:15:02;;;;;;;71.63;36.60;;;-6.80;99.90;;;;;;5076561;28;20409;-70
2022/01/26 09:17:31;;;;;;;77.67;38.77;;;-6.50;99.90;;;;;;5076270;28;20835;-70
2022/01/26 09:20:00;;;;;;;68.97;33.63;;;-6.60;99.90;;;;;;5075853;28;20408;-70
2022/01/26 09:22:26;;;;;;;73.30;34.87;;;-6.30;99.90;;;;;;5076023;28;20448;-70
2022/01/26 09:24:52;;;;;;;72.80;34.60;;;-6.90;99.90;;;;;;5076259;28;20502;-69
2022/01/26 09:27:18;;;;;;;75.83;35.87;;;-6.60;99.90;;;;;;5076548;28;20496;-69
2022/01/26 09:29:46;;;;;;;70.10;36.07;;;-6.60;99.90;;;;;;5075123;28;20486;-70
2022/01/26 09:32:13;;;;;;;73.17;34.07;;;-6.50;99.90;;;;;;5076138;28;20175;-69
2022/01/26 09:34:40;;;;;;;72.77;36.57;;;-6.70;99.90;;;;;;5075166;28;20396;-70
2022/01/26 09:37:08;;;;;;;74.13;37.27;;;-6.90;99.90;;;;;;5075967;28;20392;-70
2022/01/26 09:39:34;;;;;;;80.70;38.53;;;-6.50;99.90;;;;;;5074749;28;20396;-69
2022/01/26 09:42:01;;;;;;;69.63;34.73;;;-6.90;99.90;;;;;;5075904;28;20399;-69
2022/01/26 09:44:30;;;;;;;82.77;37.67;;;-6.30;99.90;;;;;;5075307;28;20397;-69
2022/01/26 09:46:57;;;;;;;85.43;41.20;;;-6.50;99.90;;;;;;5069545;28;20495;-69
2022/01/26 09:49:29;;;;;;;75.67;36.87;;;-6.30;99.90;;;;;;5075851;28;20405;-77
2022/01/26 09:52:00;;;;;;;73.20;39.07;;;-6.40;99.90;;;;;;5075910;28;20422;-71
2022/01/26 09:54:30;;;;;;;81.77;39.77;;;-6.40;99.90;;;;;;5074262;28;20820;-71
2022/01/26 09:57:02;;;;;;;78.20;35.87;;;-6.30;99.90;;;;;;5075650;28;20406;-70
2022/01/26 09:59:29;;;;;;;78.23;40.27;;;-6.10;99.90;;;;;;5075334;28;20462;-71
2022/01/26 10:01:55;;;;;;;77.70;37.33;;;-6.10;99.90;;;;;;5075151;28;20796;-68
2022/01/26 10:04:22;;;;;;;71.53;35.63;;;-6.80;99.90;;;;;;5074433;28;20456;-70
2022/01/26 10:07:18;;;;;;;73.43;34.53;;;-7.50;99.90;;;;;;5075701;28;20175;-68
2022/01/26 10:10:03;;;;;;;82.67;36.30;;;-7.60;99.90;;;;;;5074570;28;20504;-69
2022/01/26 10:15:31;;;;;;;64.50;36.27;;;-7.30;99.90;;;;;;5068015;28;20547;-70
2022/01/26 10:18:03;;;;;;;69.30;34.40;;;-7.10;99.90;;;;;;5069276;28;20770;-76
2022/01/26 10:20:43;;;;;;;56.97;29.63;;;-6.90;99.90;;;;;;5073576;28;20936;-70
2022/01/26 10:23:13;;;;;;;55.07;30.90;;;-6.70;99.90;;;;;;5074881;28;20459;-71
2022/01/26 10:25:42;;;;;;;58.60;33.03;;;-6.70;99.90;;;;;;5071486;28;20847;-69
2022/01/26 10:28:09;;;;;;;64.80;31.60;;;-6.50;99.90;;;;;;5075539;28;20404;-69
2022/01/26 10:30:35;;;;;;;57.63;31.77;;;-6.50;99.90;;;;;;5075384;28;20389;-69
2022/01/26 10:33:08;;;;;;;57.00;30.87;;;-6.50;99.90;;;;;;5074089;28;20748;-71
2022/01/26 10:35:34;;;;;;;64.07;31.97;;;-6.40;99.90;;;;;;5074974;28;20171;-69
2022/01/26 10:38:00;;;;;;;63.97;32.83;;;-6.50;99.90;;;;;;5075153;28;20454;-70
2022/01/26 10:40:28;;;;;;;58.53;31.83;;;-6.70;99.90;;;;;;5074840;28;20400;-68
2022/01/26 10:42:59;;;;;;;62.77;30.77;;;-6.30;99.90;;;;;;5074391;28;20218;-70
2022/01/26 10:46:03;;;;;;;57.47;30.97;;;-6.90;99.90;;;;;;5074820;28;20404;-77
2022/01/26 10:48:37;;;;;;;60.17;31.90;;;-6.90;99.90;;;;;;5074455;28;20412;-70
2022/01/26 10:53:58;;;;;;;62.03;31.23;;;-6.80;99.90;;;;;;5057737;28;20447;-70
2022/01/26 10:56:24;;;;;;;68.70;32.63;;;-7.10;99.90;;;;;;5074067;28;20426;-71
2022/01/26 10:58:50;;;;;;;59.73;33.37;;;-6.70;99.90;;;;;;5074654;28;20699;-72
2022/01/26 11:01:16;;;;;;;74.07;36.47;;;-6.30;99.90;;;;;;5073668;28;20210;-74
2022/01/26 11:03:41;;;;;;;70.47;31.90;;;-6.20;99.90;;;;;;5074375;28;20214;-73
2022/01/26 11:06:08;;;;;;;70.67;37.03;;;-6.70;99.90;;;;;;5074203;28;20209;-71
2022/01/26 11:08:39;;;;;;;68.07;34.07;;;-6.80;99.90;;;;;;5073396;28;20213;-72
2022/01/26 11:11:05;;;;;;;63.20;33.80;;;-6.60;99.90;;;;;;5069930;28;20404;-75
2022/01/26 11:13:36;;;;;;;62.73;32.97;;;-6.40;99.90;;;;;;5074260;28;20503;-76
2022/01/26 11:16:18;;;;;;;64.03;33.63;;;-6.90;99.90;;;;;;5074505;28;20896;-71
2022/01/26 11:18:58;;;;;;;68.23;34.27;;;-6.20;99.90;;;;;;5075313;28;20420;-77
2022/01/26 11:21:28;;;;;;;65.93;34.57;;;-7.20;99.90;;;;;;5071981;28;20467;-73
2022/01/26 11:24:19;;;;;;;74.40;36.03;;;-7.10;99.90;;;;;;5074160;28;20538;-73
2022/01/26 11:26:46;;;;;;;69.23;34.60;;;-7.50;99.90;;;;;;5074682;28;20699;-71
2022/01/26 11:29:31;;;;;;;68.60;34.93;;;-7.00;99.90;;;;;;5074475;28;20400;-77
2022/01/26 11:32:13;;;;;;;62.20;32.37;;;-6.50;99.90;;;;;;5071766;28;20514;-82
2022/01/26 11:34:40;;;;;;;72.17;35.07;;;-7.00;99.90;;;;;;5075689;28;20550;-74
2022/01/26 11:37:12;;;;;;;67.90;34.73;;;-7.20;99.90;;;;;;5074968;28;20411;-73
2022/01/26 11:45:35;;;;;;;71.67;35.30;;;-7.20;99.90;;;;;;5075371;28;20854;-72
2022/01/26 11:48:08;;;;;;;69.40;35.43;;;-7.10;99.90;;;;;;5067085;28;20412;-73
2022/01/26 11:50:36;;;;;;;66.43;32.87;;;-7.60;99.90;;;;;;5073033;28;20416;-71
2022/01/26 11:53:06;;;;;;;58.63;32.23;;;-7.60;99.90;;;;;;5067885;28;20416;-71
2022/01/26 11:55:42;;;;;;;69.50;35.47;;;-7.60;99.90;;;;;;5065377;28;20558;-77
2022/01/26 11:58:10;;;;;;;72.60;36.87;;;-7.20;99.90;;;;;;5074349;28;20426;-77
2022/01/26 12:00:58;;;;;;;75.93;37.83;;;-7.20;99.90;;;;;;5073383;28;20438;-73
2022/01/26 12:03:35;;;;;;;60.03;33.13;;;-7.30;99.90;;;;;;5072474;28;20554;-76
2022/01/26 12:06:02;;;;;;;73.27;37.10;;;-9.20;99.90;;;;;;5072723;28;20827;-72
2022/01/26 12:08:37;;;;;;;71.80;35.03;;;-6.50;99.90;;;;;;5074862;28;20959;-73
2022/01/26 12:11:06;;;;;;;71.83;34.97;;;-7.00;99.90;;;;;;5074155;28;20399;-73
2022/01/26 12:13:33;;;;;;;66.23;37.23;;;-6.80;99.90;;;;;;5073969;28;20439;-72
2022/01/26 12:16:10;;;;;;;67.70;35.03;;;-6.40;99.90;;;;;;5074677;28;20411;-74
2022/01/26 12:18:43;;;;;;;70.77;36.73;;;-7.10;99.90;;;;;;5073852;28;20435;-75
2022/01/26 12:38:25;;;;;;;69.70;34.07;;;-6.70;99.90;;;;;;5075877;28;20447;-76
2022/01/26 12:43:57;;;;;;;65.47;34.87;;;-6.60;99.90;;;;;;5053454;28;20455;-75
2022/01/26 12:46:31;;;;;;;69.93;35.77;;;-6.60;99.90;;;;;;5072786;28;20465;-74
2022/01/26 12:49:10;;;;;;;67.63;35.80;;;-6.60;99.90;;;;;;5076411;28;20396;-76
2022/01/26 12:51:42;;;;;;;67.43;36.97;;;-6.70;99.90;;;;;;5074728;28;20847;-73
2022/01/26 12:54:08;;;;;;;72.63;36.63;;;-6.70;99.90;;;;;;5076395;28;20409;-73
2022/01/26 12:56:34;;;;;;;68.00;35.87;;;-6.50;99.90;;;;;;5076785;28;20437;-73
2022/01/26 12:59:04;;;;;;;67.10;33.17;;;-6.60;99.90;;;;;;5073567;28;20489;-75
2022/01/26 13:01:30;;;;;;;70.27;33.67;;;-6.60;99.90;;;;;;5073959;28;20934;-75
2022/01/26 13:04:06;;;;;;;66.50;34.27;;;-6.40;99.90;;;;;;5075497;28;20448;-72
2022/01/26 13:06:38;;;;;;;66.47;34.70;;;-6.10;99.90;;;;;;5076131;28;20403;-72
2022/01/26 13:09:25;;;;;;;65.63;32.40;;;-5.80;99.90;;;;;;5076294;28;20396;-72
2022/01/26 13:11:52;;;;;;;63.87;31.33;;;-6.10;99.90;;;;;;5075666;28;20839;-77
2022/01/26 13:14:32;;;;;;;65.97;31.07;;;-3.90;99.90;;;;;;5075943;28;20454;-72
2022/01/26 13:17:17;;;;;;;60.40;30.10;;;-6.10;99.90;;;;;;5075937;28;20411;-80
2022/01/26 13:31:02;;;;;;;62.37;32.37;;;-6.60;99.90;;;;;;5074916;28;20422;-75
2022/01/26 13:45:22;;;;;;;60.67;29.67;;;-7.00;99.90;;;;;;5075476;28;20485;-79
2022/01/26 13:53:02;;;;;;;70.10;28.80;;;-6.80;99.90;;;;;;5075503;28;20499;-76
2022/01/26 14:00:41;;;;;;;68.73;30.77;;;-6.60;99.90;;;;;;5075362;28;20621;-72
2022/01/26 14:03:09;;;;;;;65.17;30.67;;;-6.30;99.90;;;;;;5074573;28;20455;-75
2022/01/26 14:05:35;;;;;;;66.63;32.50;;;-7.60;99.90;;;;;;5075250;28;20404;-77
2022/01/26 14:08:02;;;;;;;60.10;28.73;;;-7.00;99.90;;;;;;5075784;28;20404;-73
2022/01/26 14:10:28;;;;;;;68.10;33.33;;;-7.00;99.90;;;;;;5073403;28;20412;-72
2022/01/26 14:12:54;;;;;;;60.70;31.03;;;-6.80;99.90;;;;;;5075322;28;20408;-73
2022/01/26 14:15:22;;;;;;;67.63;31.57;;;-7.00;99.90;;;;;;5073306;28;20182;-74
2022/01/26 14:20:39;;;;;;;70.43;32.17;;;-6.70;99.90;;;;;;5073928;28;20703;-71
2022/01/26 14:23:17;;;;;;;61.53;31.47;;;-6.10;99.90;;;;;;5074987;28;20479;-73
2022/01/26 14:25:49;;;;;;;66.07;29.10;;;-7.00;99.90;;;;;;5074361;28;20408;-71
2022/01/26 14:28:18;;;;;;;66.43;29.27;;;-6.50;99.90;;;;;;5066437;28;20870;-73
2022/01/26 15:43:25;;;;;;;57.83;27.07;;;-7.50;99.90;;;;;;5072763;28;20436;-72
2022/01/26 15:51:14;;;;;;;58.43;29.50;;;-7.00;99.90;;;;;;5066806;28;20415;-76
2022/01/26 17:55:11;;;;;;;54.07;27.53;;;-5.70;99.90;;;;;;5066680;28;20803;-74
2022/01/26 18:22:20;;;;;;;66.47;33.97;;;-6.90;99.90;;;;;;5046707;28;20448;-76
2022/01/26 18:50:34;;;;;;;48.97;28.47;;;-7.20;99.90;;;;;;5073989;28;20463;-75
2022/01/26 18:53:00;;;;;;;46.77;27.73;;;-7.30;99.90;;;;;;5073986;28;20451;-74
2022/01/26 18:55:26;;;;;;;43.67;25.90;;;-6.80;99.90;;;;;;5075385;28;20179;-76
2022/01/26 18:57:52;;;;;;;48.10;27.67;;;-6.80;99.90;;;;;;5071330;28;20611;-78
2022/01/26 19:00:18;;;;;;;48.50;28.17;;;-7.10;99.90;;;;;;5066112;28;20552;-75
2022/01/26 19:02:44;;;;;;;44.37;26.67;;;-7.10;99.90;;;;;;5057693;28;20600;-73
2022/01/26 19:05:12;;;;;;;38.37;25.87;;;-7.40;99.90;;;;;;5071067;28;20486;-73
2022/01/26 19:07:38;;;;;;;44.07;26.57;;;-7.20;99.90;;;;;;5075345;28;20181;-77
2022/01/26 19:10:05;;;;;;;43.33;26.40;;;-6.50;99.90;;;;;;5074848;28;20414;-76
2022/01/26 19:12:34;;;;;;;41.30;24.10;;;-6.80;99.90;;;;;;5074944;28;20250;-77
2022/01/26 19:15:04;;;;;;;41.97;26.03;;;-6.70;99.90;;;;;;5075101;28;20438;-75
2022/01/26 19:17:36;;;;;;;43.97;26.10;;;-6.10;99.90;;;;;;5074958;28;20404;-78
2022/01/26 19:23:14;;;;;;;41.57;23.43;;;-6.70;99.90;;;;;;5069206;28;20428;-77
2022/01/26 19:25:32;;;;;;;41.10;23.77;;;-6.50;99.90;;;;;;5061008;28;20465;-78